METAR Data
IDs: Format: Raw Decoded Include TAF

Data at: 0111 UTC 25 Mar 2019

KSPW 250102Z AUTO 35013KT 8SM SCT006 OVC038 07/05 A3016 RMK AO2 T00720050
KSPW 250053Z AUTO 35010KT 9SM OVC038 08/05 A3015 RMK AO2 SLP219 T00780050
KSPW 242353Z AUTO 02011KT 10SM OVC044 08/04 A3013 RMK AO2 SLP210 T00830039 10128 20078 53018
KSPW 242253Z AUTO 01015KT 10SM BKN036 OVC065 09/04 A3011 RMK AO2 SLP204 T00940044
KSPW 242234Z AUTO 01013G23KT 10SM FEW028 OVC036 09/04 A3010 RMK AO2 T00940044
KSPW 242153Z AUTO 02018KT 10SM BKN027 BKN035 OVC100 12/05 A3009 RMK AO2 SLP195 T01170050
KSPW 242053Z AUTO 04013KT 10SM FEW100 13/06 A3007 RMK AO2 SLP188 T01280056 53001
KSPW 241953Z AUTO 04015KT 10SM FEW025 BKN033 OVC055 11/04 A3006 RMK AO2 SLP186 T01060044
KSPW 241946Z AUTO 05014KT 10SM FEW025 BKN033 OVC044 11/04 A3006 RMK AO2 T01060044
KSPW 241853Z AUTO 05014KT 10SM OVC023 09/04 A3007 RMK AO2 SLP190 T00890039
KSPW 241753Z AUTO 04011KT 10SM OVC023 08/03 A3007 RMK AO2 SLP190 60000 T00780033 10089 20044 53003
KSPW 241702Z AUTO 03014KT 10SM SCT013 OVC029 08/04 A3006 RMK AO2 T00830044
KSPW 241653Z AUTO 03014KT 10SM SCT013 OVC030 09/05 A3006 RMK AO2 SLP188 T00890050
KSPW 241553Z AUTO 03010KT 10SM SCT009 OVC036 07/04 A3006 RMK AO2 SLP186 T00720044
KSPW 241550Z AUTO 02009KT 10SM SCT009 OVC036 07/04 A3006 RMK AO2
KSPW 241453Z AUTO 05009KT 8SM OVC007 07/04 A3004 RMK AO2 RAB24E41 SLP180 P0000 60000 T00670044 50003
KSPW 241353Z AUTO 04007KT 5SM BR OVC006 06/04 A3005 RMK AO2 SLP182 T00560039
KSPW 241326Z AUTO 03008KT 4SM BR OVC005 05/03 A3004 RMK AO2 CIG 002V007 T00500033
KSPW 241316Z AUTO 05008KT 3SM BR BKN003 OVC007 05/03 A3004 RMK AO2 CIG 002V006 T00500033
KSPW 241253Z AUTO 03006KT 2SM BR OVC003 05/03 A3003 RMK AO2 SLP177 T00500033
KSPW 241249Z AUTO 03007KT 2SM BR OVC003 04/03 A3003 RMK AO2
KSPW 241153Z AUTO 05009KT 5SM BR OVC004 05/03 A3001 RMK AO2 SLP170 T00500033 10061 20050 56005
KSPW 241121Z AUTO 07007KT 5SM BR BKN004 BKN039 OVC046 05/03 A3001 RMK AO2 T00500033
KSPW 241113Z AUTO 07006KT 6SM BR BKN005 BKN039 OVC046 05/03 A3001 RMK AO2 T00500033
KSPW 241103Z AUTO 06005KT 6SM BR SCT005 BKN026 OVC046 05/03 A3001 RMK AO2 T00500033
KSPW 241053Z AUTO 08004KT 7SM BKN005 BKN026 OVC045 05/03 A3001 RMK AO2 SLP170 T00500033
KSPW 241038Z AUTO 06005KT 8SM BKN005 BKN027 OVC032 05/03 A3001 RMK AO2 T00500033
KSPW 241026Z AUTO 06006KT 9SM FEW006 OVC033 05/03 A3001 RMK AO2 T00500033
KSPW 241005Z AUTO 08006KT 10SM SCT014 OVC033 05/03 A3001 RMK AO2 T00500033
KSPW 240953Z AUTO 08007KT 10SM BKN014 OVC033 06/03 A3001 RMK AO2 SLP169 T00560033
KSPW 240940Z AUTO 08006KT 9SM SCT013 OVC033 05/03 A3001 RMK AO2 T00500033
KSPW 240853Z AUTO 09007KT 10SM OVC029 06/03 A3002 RMK AO2 SLP172 T00610028 56008
KSPW 240820Z AUTO 10007KT 10SM OVC029 06/03 A3003 RMK AO2 T00610028
KSPW 240753Z AUTO 08008KT 10SM OVC031 06/03 A3003 RMK AO2 SLP175 T00560028
KSPW 240653Z AUTO 07007KT 10SM OVC033 06/03 A3004 RMK AO2 SLP177 T00560028
KSPW 240553Z AUTO 08006KT 10SM OVC038 06/03 A3005 RMK AO2 SLP182 60000 T00560028 10094 20050 401281022 58005
KSPW 240453Z AUTO 08006KT 10SM FEW034 BKN080 06/02 A3006 RMK AO2 SLP186 T00560022
KSPW 240353Z AUTO 10007KT 10SM OVC070 07/03 A3007 RMK AO2 SLP189 T00670033
KSPW 240253Z AUTO 09006KT 10SM BKN070 OVC110 07/03 A3007 RMK AO2 RAE03 SLP190 P0000 60000 T00720033 56002
KSPW 240153Z AUTO 10010KT 10SM -RA FEW055 OVC095 08/03 A3007 RMK AO2 RAB51 SLP190 P0000 T00830028
KSPW 240053Z AUTO 11008KT 10SM OVC080 08/04 A3007 RMK AO2 SLP191 T00830039
KSPW 232353Z AUTO 08007KT 10SM SCT055 BKN070 OVC085 09/04 A3007 RMK AO2 SLP193 60000 T00940039 10128 20094 58007
KSPW 232253Z AUTO 14008KT 10SM OVC090 11/04 A3009 RMK AO2 RAE08 SLP198 P0000 T01060039
KSPW 232153Z AUTO 11011KT 10SM -RA BKN070 OVC090 11/04 A3008 RMK AO2 RAB43 SLP197 P0000 T01110044
KSPW 232053Z AUTO 13010KT 10SM OVC095 12/03 A3009 RMK AO2 SLP200 T01220033 56020
KSPW 231953Z AUTO 14009KT 10SM CLR 13/02 A3010 RMK AO2 SLP203 T01280022
KSPW 231853Z AUTO 15009KT 10SM CLR 12/02 A3014 RMK AO2 SLP215 T01170022
KSPW 231753Z AUTO 17012G19KT 10SM CLR 12/02 A3016 RMK AO2 SLP221 60000 T01170022 10117 21017 58009
KSPW 231653Z AUTO 16014KT 10SM CLR 09/02 A3018 RMK AO2 SLP228 T00940017
KSPW 231553Z AUTO 13008KT 10SM CLR 08/01 A3017 RMK AO2 SLP228 T00780011
KSPW 231453Z AUTO 13009KT 10SM CLR 05/01 A3018 RMK AO2 SLP232 60000 T00500006 56002
KSPW 231353Z AUTO 11006KT 10SM CLR 02/M01 A3019 RMK AO2 UPE04B45E47RAB33E45 SLP235 P0000 T00221011